Time;durP1;ratioP1;P1;durP2;ratioP2;P2;SDS_P1;SDS_P2;PMS_P1;PMS_P2;Temp;Humidity;BMP_temperature;BMP_pressure;BME280_temperature;BME280_humidity;BME280_pressure;Samples;Min_cycle;Max_cycle;Signal;HPM_P1;HPM_P2
2023/08/16 00:01:20;;;;;;;1.63;0.82;;;14.50;99.90;;;;;;5014604;28;20037;-84
2023/08/16 00:03:46;;;;;;;1.17;0.90;;;14.50;99.90;;;;;;5016482;28;20042;-84
2023/08/16 00:06:13;;;;;;;1.75;0.68;;;14.40;99.90;;;;;;5032162;28;20077;-84
2023/08/16 00:08:39;;;;;;;2.78;0.70;;;14.50;99.90;;;;;;5012985;28;20494;-84
2023/08/16 00:11:05;;;;;;;2.08;0.65;;;14.50;99.90;;;;;;5030999;28;20543;-84
2023/08/16 00:13:34;;;;;;;3.08;1.13;;;14.30;99.90;;;;;;5023357;28;20074;-83
2023/08/16 00:16:01;;;;;;;3.55;1.20;;;14.20;99.90;;;;;;4996361;28;20048;-83
2023/08/16 00:18:29;;;;;;;4.95;1.55;;;14.10;99.90;;;;;;5014093;28;20042;-83
2023/08/16 00:20:54;;;;;;;5.25;1.40;;;13.90;99.90;;;;;;5006357;28;20088;-83
2023/08/16 00:23:20;;;;;;;3.75;1.40;;;13.80;99.90;;;;;;5016236;28;20069;-84
2023/08/16 00:25:45;;;;;;;4.95;1.65;;;13.70;99.90;;;;;;5015834;28;20038;-83
2023/08/16 00:28:11;;;;;;;3.83;1.63;;;13.70;99.90;;;;;;5028147;28;20102;-83
2023/08/16 00:30:36;;;;;;;4.13;1.70;;;13.70;99.90;;;;;;5029044;28;20526;-84
2023/08/16 00:33:02;;;;;;;1.48;0.75;;;13.70;99.90;;;;;;5016865;28;20409;-83
2023/08/16 00:35:28;;;;;;;2.38;0.60;;;13.80;99.90;;;;;;5015382;28;20045;-84
2023/08/16 00:37:53;;;;;;;1.45;0.60;;;13.80;99.90;;;;;;5021188;28;20486;-85
2023/08/16 00:40:20;;;;;;;0.50;0.45;;;13.90;99.90;;;;;;5018396;28;20041;-84
2023/08/16 00:42:46;;;;;;;1.73;0.57;;;13.90;99.90;;;;;;5027965;28;20045;-84
2023/08/16 00:45:11;;;;;;;2.05;0.75;;;13.90;99.90;;;;;;5030444;28;20508;-85
2023/08/16 00:47:37;;;;;;;5.25;1.00;;;13.80;99.90;;;;;;5013578;28;20053;-83
2023/08/16 00:50:03;;;;;;;2.25;0.80;;;13.80;99.90;;;;;;5001422;28;20041;-84
2023/08/16 00:52:29;;;;;;;0.88;0.70;;;13.80;99.90;;;;;;5018947;28;20453;-84
2023/08/16 00:54:55;;;;;;;0.52;0.30;;;13.90;99.90;;;;;;5019549;28;20592;-84
2023/08/16 00:57:21;;;;;;;1.60;0.60;;;13.90;99.90;;;;;;5007823;28;20034;-83
2023/08/16 00:59:47;;;;;;;0.70;0.50;;;13.90;99.90;;;;;;4996089;28;20037;-82
2023/08/16 01:02:19;;;;;;;0.60;0.60;;;13.90;99.90;;;;;;5004594;28;20038;-82
2023/08/16 01:04:47;;;;;;;1.30;0.77;;;13.90;99.90;;;;;;5023471;28;20409;-82
2023/08/16 01:07:12;;;;;;;1.70;0.77;;;13.90;99.90;;;;;;5025148;28;20428;-83
2023/08/16 01:09:38;;;;;;;2.17;0.80;;;13.70;99.90;;;;;;5022868;28;20128;-84
2023/08/16 01:12:10;;;;;;;1.42;0.95;;;13.60;99.90;;;;;;5024600;28;20030;-82
2023/08/16 01:14:50;;;;;;;2.55;0.90;;;13.50;99.90;;;;;;5016769;28;20493;-82
2023/08/16 01:17:16;;;;;;;1.10;0.80;;;13.50;99.90;;;;;;5002596;28;20037;-83
2023/08/16 01:19:44;;;;;;;1.13;0.60;;;13.40;99.90;;;;;;5032867;28;20107;-83
2023/08/16 01:22:47;;;;;;;0.50;0.50;;;13.50;99.90;;;;;;5023502;28;20049;-83
2023/08/16 01:25:43;;;;;;;2.03;0.68;;;13.50;99.90;;;;;;5029201;28;20108;-82
2023/08/16 01:28:10;;;;;;;2.75;0.82;;;13.60;99.90;;;;;;5023385;28;20060;-83
2023/08/16 01:30:37;;;;;;;1.23;0.55;;;13.60;99.90;;;;;;5009027;28;20030;-84
2023/08/16 01:33:10;;;;;;;1.25;0.50;;;13.60;99.90;;;;;;4995292;28;20057;-84
2023/08/16 01:35:37;;;;;;;2.20;0.63;;;13.60;99.90;;;;;;5036414;28;20033;-83
2023/08/16 01:38:04;;;;;;;0.68;0.60;;;13.70;99.90;;;;;;5040396;28;20049;-83
2023/08/16 01:40:37;;;;;;;1.38;0.80;;;13.70;99.90;;;;;;5015240;28;20045;-83
2023/08/16 01:43:06;;;;;;;1.42;0.93;;;13.70;99.90;;;;;;5013525;28;20048;-83
2023/08/16 01:45:32;;;;;;;1.45;0.75;;;13.70;99.90;;;;;;5029258;28;20050;-83
2023/08/16 01:47:58;;;;;;;1.98;1.15;;;13.60;99.90;;;;;;4995212;28;20045;-84
2023/08/16 01:50:24;;;;;;;2.38;1.10;;;13.70;99.90;;;;;;5010250;28;20034;-83
2023/08/16 01:52:50;;;;;;;2.80;1.13;;;13.60;99.90;;;;;;5026584;28;20539;-84
2023/08/16 01:55:16;;;;;;;3.72;1.60;;;13.60;99.90;;;;;;5017418;28;20128;-84
2023/08/16 01:57:42;;;;;;;5.07;2.47;;;13.60;99.90;;;;;;5011966;28;20116;-85
2023/08/16 02:00:09;;;;;;;6.32;3.40;;;13.60;99.90;;;;;;5008212;28;20485;-84
2023/08/16 02:02:37;;;;;;;6.20;3.30;;;13.60;99.90;;;;;;5033722;28;20051;-84
2023/08/16 02:05:02;;;;;;;5.68;3.08;;;13.60;99.90;;;;;;5017580;28;20091;-83
2023/08/16 02:07:28;;;;;;;3.85;1.63;;;13.50;99.90;;;;;;5015335;28;20030;-84
2023/08/16 02:09:53;;;;;;;5.07;1.38;;;13.50;99.90;;;;;;5001343;28;20112;-84
2023/08/16 02:12:19;;;;;;;2.53;1.48;;;13.50;99.90;;;;;;5017331;28;20041;-83
2023/08/16 02:14:45;;;;;;;3.97;1.85;;;13.50;99.90;;;;;;5024077;28;20456;-83
2023/08/16 02:17:10;;;;;;;4.15;1.88;;;13.50;99.90;;;;;;5018799;28;20045;-84
2023/08/16 02:19:36;;;;;;;3.30;1.70;;;13.50;99.90;;;;;;5034209;28;20497;-84
2023/08/16 02:22:01;;;;;;;3.10;1.88;;;13.40;99.90;;;;;;5016512;28;20048;-83
2023/08/16 02:24:27;;;;;;;2.75;1.52;;;13.20;99.90;;;;;;5031757;28;20038;-84
2023/08/16 02:26:53;;;;;;;3.78;1.77;;;13.20;99.90;;;;;;5020009;28;20096;-83
2023/08/16 02:29:18;;;;;;;5.20;2.00;;;13.20;99.90;;;;;;5013984;28;20117;-83
2023/08/16 02:31:44;;;;;;;3.95;2.08;;;13.20;99.90;;;;;;5017897;28;20045;-83
2023/08/16 02:34:09;;;;;;;4.10;1.80;;;13.20;99.90;;;;;;5033437;28;20042;-83
2023/08/16 02:36:35;;;;;;;5.43;2.20;;;13.10;99.90;;;;;;5028825;28;20437;-83
2023/08/16 02:39:01;;;;;;;4.07;2.00;;;13.10;99.90;;;;;;5033983;28;20045;-83
2023/08/16 02:41:26;;;;;;;4.43;1.88;;;13.10;99.90;;;;;;5004875;28;20475;-82
2023/08/16 02:43:52;;;;;;;5.50;2.75;;;13.10;99.90;;;;;;5035733;28;20218;-82
2023/08/16 02:46:17;;;;;;;4.07;1.90;;;13.10;99.90;;;;;;5014612;28;20505;-83
2023/08/16 02:48:43;;;;;;;5.30;2.47;;;13.10;99.90;;;;;;5017106;28;20033;-83
2023/08/16 02:51:08;;;;;;;4.65;2.40;;;12.90;99.90;;;;;;5028036;28;20033;-83
2023/08/16 02:53:34;;;;;;;4.70;2.08;;;12.80;99.90;;;;;;5032953;28;20072;-83
2023/08/16 02:56:00;;;;;;;4.07;2.10;;;12.80;99.90;;;;;;5012346;28;20494;-84
2023/08/16 02:58:26;;;;;;;4.57;2.22;;;12.70;99.90;;;;;;5033169;28;20033;-84
2023/08/16 03:00:52;;;;;;;6.88;1.90;;;12.60;99.90;;;;;;5031636;28;20048;-83
2023/08/16 03:03:18;;;;;;;1.48;1.17;;;12.60;99.90;;;;;;5001066;28;20383;-84
2023/08/16 03:05:43;;;;;;;2.97;1.33;;;12.70;99.90;;;;;;5019539;28;20141;-83
2023/08/16 03:08:09;;;;;;;4.53;1.70;;;12.70;99.90;;;;;;5024140;28;20037;-83
2023/08/16 03:10:35;;;;;;;2.80;1.63;;;12.60;99.90;;;;;;5024449;28;20478;-83
2023/08/16 03:13:00;;;;;;;3.58;1.38;;;12.60;99.90;;;;;;5027044;28;20068;-83
2023/08/16 03:15:26;;;;;;;3.03;1.70;;;12.60;99.90;;;;;;5033574;28;20041;-83
2023/08/16 03:17:51;;;;;;;3.53;1.80;;;12.60;99.90;;;;;;5032344;28;20450;-83
2023/08/16 03:20:17;;;;;;;4.82;2.03;;;12.60;99.90;;;;;;5016316;28;20090;-83
2023/08/16 03:22:42;;;;;;;3.90;1.70;;;12.60;99.90;;;;;;5028343;28;20390;-83
2023/08/16 03:25:08;;;;;;;3.60;1.90;;;12.60;99.90;;;;;;5029344;28;20038;-82
2023/08/16 03:27:34;;;;;;;3.83;1.77;;;12.60;99.90;;;;;;5012865;28;20045;-83
2023/08/16 03:30:00;;;;;;;4.60;2.13;;;12.60;99.90;;;;;;5018565;28;20041;-82
2023/08/16 03:32:25;;;;;;;5.82;2.63;;;12.50;99.90;;;;;;5029062;28;20041;-83
2023/08/16 03:34:51;;;;;;;6.35;3.03;;;12.50;99.90;;;;;;5008265;28;20092;-82
2023/08/16 03:37:17;;;;;;;5.70;2.85;;;12.40;99.90;;;;;;5003733;28;20429;-82
2023/08/16 03:39:42;;;;;;;5.90;2.70;;;12.40;99.90;;;;;;4996913;28;20482;-83
2023/08/16 03:42:08;;;;;;;4.55;2.55;;;12.30;99.90;;;;;;5021211;28;20095;-83
2023/08/16 03:44:33;;;;;;;6.88;2.28;;;12.30;99.90;;;;;;5031364;28;20080;-82
2023/08/16 03:46:59;;;;;;;4.65;2.40;;;12.20;99.90;;;;;;5030861;28;20042;-82
2023/08/16 03:49:25;;;;;;;4.95;2.00;;;12.20;99.90;;;;;;5033691;28;20408;-83
2023/08/16 03:51:51;;;;;;;3.70;2.00;;;12.20;99.90;;;;;;5015722;28;20037;-83
2023/08/16 03:54:16;;;;;;;3.22;1.88;;;12.20;99.90;;;;;;5015608;28;20033;-83
2023/08/16 03:56:42;;;;;;;3.35;2.03;;;12.20;99.90;;;;;;5011830;28;20052;-83
2023/08/16 03:59:07;;;;;;;6.35;2.00;;;12.30;99.90;;;;;;5012574;28;20044;-83
2023/08/16 04:01:33;;;;;;;4.00;1.90;;;12.20;99.90;;;;;;5015750;28;20575;-83
2023/08/16 04:03:59;;;;;;;2.58;1.48;;;12.30;99.90;;;;;;5030502;28;20060;-83
2023/08/16 04:06:25;;;;;;;2.75;1.60;;;12.30;99.90;;;;;;5018334;28;20121;-83
2023/08/16 04:08:50;;;;;;;4.05;1.52;;;12.40;99.90;;;;;;5008117;28;20072;-83
2023/08/16 04:11:16;;;;;;;2.53;1.50;;;12.40;99.90;;;;;;5029242;28;20049;-83
2023/08/16 04:13:41;;;;;;;4.07;1.77;;;12.40;99.90;;;;;;5013098;28;20030;-83
2023/08/16 04:16:07;;;;;;;4.40;2.20;;;12.30;99.90;;;;;;5010244;28;20037;-83
2023/08/16 04:18:33;;;;;;;4.75;2.20;;;12.20;99.90;;;;;;5023890;28;20037;-82
2023/08/16 04:20:58;;;;;;;4.15;2.13;;;12.20;99.90;;;;;;5024873;28;20398;-83
2023/08/16 04:23:24;;;;;;;5.22;2.00;;;12.10;99.90;;;;;;5010972;28;20049;-83
2023/08/16 04:25:50;;;;;;;3.08;1.80;;;12.10;99.90;;;;;;5031527;28;20490;-84
2023/08/16 04:28:16;;;;;;;3.35;1.88;;;12.00;99.90;;;;;;5013599;28;20049;-82
2023/08/16 04:30:41;;;;;;;4.43;1.70;;;12.00;99.90;;;;;;5031148;28;20049;-83
2023/08/16 04:33:07;;;;;;;4.55;2.08;;;12.10;99.90;;;;;;5000215;28;20038;-83
2023/08/16 04:35:32;;;;;;;4.32;1.85;;;12.10;99.90;;;;;;5001278;28;20096;-83
2023/08/16 04:37:58;;;;;;;5.10;2.13;;;12.10;99.90;;;;;;5026326;28;20043;-83
2023/08/16 04:40:24;;;;;;;4.03;1.85;;;12.10;99.90;;;;;;5031183;28;20103;-83
2023/08/16 04:42:49;;;;;;;4.13;1.95;;;12.10;99.90;;;;;;5031334;28;20048;-82
2023/08/16 04:45:15;;;;;;;6.03;1.88;;;12.20;99.90;;;;;;5005618;28;20117;-83
2023/08/16 04:47:40;;;;;;;4.95;2.28;;;12.30;99.90;;;;;;5015162;28;20045;-83
2023/08/16 04:50:06;;;;;;;5.85;2.83;;;12.40;99.90;;;;;;5028098;28;20545;-83
2023/08/16 04:52:36;;;;;;;6.47;2.90;;;12.50;99.90;;;;;;5002313;28;20037;-83
2023/08/16 04:55:02;;;;;;;8.65;4.45;;;12.50;99.90;;;;;;5030767;28;20033;-83
2023/08/16 04:57:27;;;;;;;9.35;4.68;;;12.50;99.90;;;;;;5005040;28;20041;-82
2023/08/16 04:59:53;;;;;;;7.70;4.35;;;12.50;99.90;;;;;;5000872;28;20498;-82
2023/08/16 05:02:18;;;;;;;5.68;3.25;;;12.40;99.90;;;;;;5013969;28;20037;-83
2023/08/16 05:04:44;;;;;;;5.43;3.10;;;12.50;99.90;;;;;;5030159;28;20064;-83
2023/08/16 05:07:10;;;;;;;6.63;3.38;;;12.50;99.90;;;;;;5027834;28;20037;-83
2023/08/16 05:09:36;;;;;;;5.90;3.42;;;12.60;99.90;;;;;;5025560;28;20041;-83
2023/08/16 05:12:02;;;;;;;7.28;3.53;;;12.60;99.90;;;;;;5014479;28;20452;-82
2023/08/16 05:14:28;;;;;;;6.32;3.55;;;12.70;99.90;;;;;;5002179;28;20498;-83
2023/08/16 05:16:53;;;;;;;6.72;3.90;;;12.70;99.90;;;;;;5024520;28;20042;-83
2023/08/16 05:19:19;;;;;;;6.70;3.67;;;12.70;99.90;;;;;;5014048;28;20404;-83
2023/08/16 05:21:44;;;;;;;6.75;3.63;;;12.70;99.90;;;;;;5016667;28;20041;-83
2023/08/16 05:24:10;;;;;;;7.63;3.90;;;12.80;99.90;;;;;;5016603;28;20045;-84
2023/08/16 05:26:35;;;;;;;7.40;3.72;;;12.80;99.90;;;;;;5028378;28;20077;-82
2023/08/16 05:29:01;;;;;;;6.30;3.53;;;12.80;99.90;;;;;;5027679;28;20382;-83
2023/08/16 05:31:27;;;;;;;8.32;3.85;;;12.80;99.90;;;;;;5033887;28;20045;-83
2023/08/16 05:33:52;;;;;;;11.43;3.47;;;12.80;99.90;;;;;;5007113;28;20061;-83
2023/08/16 05:36:18;;;;;;;5.43;2.88;;;12.90;99.90;;;;;;5036768;28;20045;-83
2023/08/16 05:38:43;;;;;;;5.95;3.15;;;12.90;99.90;;;;;;5008061;28;20049;-83
2023/08/16 05:41:09;;;;;;;6.13;3.33;;;13.00;99.90;;;;;;5031318;28;20045;-84
2023/08/16 05:43:34;;;;;;;6.28;3.25;;;13.00;99.90;;;;;;5013538;28;20075;-83
2023/08/16 05:46:00;;;;;;;5.68;3.00;;;13.00;99.90;;;;;;5035486;28;20045;-83
2023/08/16 05:48:26;;;;;;;6.20;3.30;;;13.00;99.90;;;;;;5001616;28;20037;-83
2023/08/16 05:50:51;;;;;;;6.90;3.47;;;13.10;99.90;;;;;;5024662;28;20508;-83
2023/08/16 05:53:17;;;;;;;6.75;3.55;;;13.10;99.90;;;;;;5016661;28;20068;-83
2023/08/16 05:55:42;;;;;;;6.03;3.45;;;13.10;99.90;;;;;;5018932;28;20194;-83
2023/08/16 05:58:08;;;;;;;6.22;3.33;;;13.20;99.90;;;;;;5023943;28;20042;-83
2023/08/16 06:00:34;;;;;;;6.03;3.20;;;13.20;99.90;;;;;;5008608;28;20037;-83
2023/08/16 06:03:00;;;;;;;5.50;3.08;;;13.30;99.90;;;;;;5029173;28;20128;-83
2023/08/16 06:05:26;;;;;;;5.43;2.63;;;13.30;99.90;;;;;;5015671;28;20045;-84
2023/08/16 06:07:52;;;;;;;6.97;3.30;;;13.50;99.90;;;;;;5023645;28;20469;-83
2023/08/16 06:10:17;;;;;;;8.35;3.78;;;13.60;99.90;;;;;;5032148;28;20044;-83
2023/08/16 06:12:43;;;;;;;7.47;4.18;;;13.70;99.90;;;;;;5026712;28;20033;-83
2023/08/16 06:15:11;;;;;;;6.78;3.47;;;13.80;99.90;;;;;;5032953;28;20072;-84
2023/08/16 06:17:40;;;;;;;6.85;3.63;;;13.90;99.90;;;;;;5003806;28;20074;-83
2023/08/16 06:20:08;;;;;;;7.07;4.03;;;14.00;99.90;;;;;;5010100;28;20081;-83
2023/08/16 06:22:39;;;;;;;7.10;3.78;;;14.00;99.90;;;;;;5032285;28;20049;-83
2023/08/16 06:25:07;;;;;;;7.75;4.32;;;14.10;99.90;;;;;;5028721;28;20038;-83
2023/08/16 06:27:33;;;;;;;7.80;5.28;;;14.20;99.90;;;;;;5023971;28;20053;-83
2023/08/16 06:29:59;;;;;;;6.47;4.10;;;14.30;99.90;;;;;;5030377;28;20079;-83
2023/08/16 06:32:25;;;;;;;7.20;4.63;;;14.30;99.90;;;;;;5024069;28;20029;-83
2023/08/16 06:34:51;;;;;;;8.15;5.00;;;14.40;99.90;;;;;;5027801;28;20086;-84
2023/08/16 06:37:16;;;;;;;8.77;4.82;;;14.50;99.90;;;;;;5013260;28;20379;-83
2023/08/16 06:39:42;;;;;;;9.05;5.22;;;14.60;99.90;;;;;;5033066;28;20112;-83
2023/08/16 06:42:09;;;;;;;7.97;5.32;;;14.70;99.90;;;;;;5016125;28;20033;-83
2023/08/16 06:44:35;;;;;;;8.25;4.70;;;14.80;99.90;;;;;;5022978;28;20087;-84
2023/08/16 06:47:01;;;;;;;9.73;5.72;;;14.90;99.90;;;;;;5003272;28;20045;-84
2023/08/16 06:49:26;;;;;;;11.35;5.63;;;15.00;99.90;;;;;;5014871;28;20568;-84
2023/08/16 06:51:52;;;;;;;7.60;5.05;;;15.10;99.90;;;;;;5034291;28;20034;-84
2023/08/16 06:54:17;;;;;;;9.35;5.60;;;15.20;99.90;;;;;;5017049;28;20467;-83
2023/08/16 06:56:43;;;;;;;9.48;6.03;;;15.30;99.90;;;;;;5018151;28;20071;-84
2023/08/16 06:59:09;;;;;;;8.43;5.15;;;15.30;99.90;;;;;;5026502;28;20045;-84
2023/08/16 07:01:34;;;;;;;7.75;4.82;;;15.40;99.90;;;;;;5013621;28;20041;-81
2023/08/16 07:04:00;;;;;;;7.72;3.25;;;15.40;99.90;;;;;;5016128;28;20051;-78
2023/08/16 07:06:26;;;;;;;6.80;3.38;;;15.50;99.90;;;;;;5033309;28;20512;-79
2023/08/16 07:08:52;;;;;;;8.88;5.68;;;15.60;99.90;;;;;;5005985;28;20034;-79
2023/08/16 07:11:18;;;;;;;7.65;5.05;;;15.80;99.90;;;;;;5020694;28;20498;-79
2023/08/16 07:13:43;;;;;;;9.73;4.93;;;15.80;99.90;;;;;;5016622;28;20052;-79
2023/08/16 07:16:09;;;;;;;9.02;5.18;;;15.90;99.90;;;;;;5015342;28;20550;-79
2023/08/16 07:18:34;;;;;;;7.55;4.80;;;16.00;99.90;;;;;;5004508;28;20053;-79
2023/08/16 07:21:00;;;;;;;8.68;5.05;;;16.00;99.90;;;;;;5024691;28;20037;-79
2023/08/16 07:23:26;;;;;;;11.57;6.35;;;16.10;99.90;;;;;;5015609;28;20095;-81
2023/08/16 07:25:57;;;;;;;13.35;9.57;;;16.30;99.90;;;;;;5030885;28;20409;-84
2023/08/16 07:28:24;;;;;;;14.60;9.77;;;16.50;99.90;;;;;;5007358;28;20136;-84
2023/08/16 07:30:54;;;;;;;15.25;8.88;;;16.60;99.90;;;;;;5033565;28;20076;-83
2023/08/16 07:33:21;;;;;;;12.75;8.20;;;16.70;99.90;;;;;;5016516;28;20394;-83
2023/08/16 07:35:47;;;;;;;12.85;7.15;;;16.70;99.90;;;;;;5009273;28;20041;-83
2023/08/16 07:38:13;;;;;;;12.02;7.93;;;16.70;99.90;;;;;;5019117;28;20501;-83
2023/08/16 07:40:38;;;;;;;12.15;7.93;;;16.80;99.90;;;;;;5032544;28;20045;-83
2023/08/16 07:43:04;;;;;;;9.68;7.20;;;16.80;99.90;;;;;;5015746;28;20410;-83
2023/08/16 07:45:30;;;;;;;12.15;7.15;;;16.80;99.90;;;;;;5020356;28;20045;-83
2023/08/16 07:47:55;;;;;;;11.82;7.38;;;16.90;99.90;;;;;;5012628;28;20046;-83
2023/08/16 07:50:21;;;;;;;12.88;7.88;;;17.10;99.90;;;;;;5000343;28;20482;-83
2023/08/16 07:52:48;;;;;;;11.48;8.90;;;17.20;99.90;;;;;;4998315;28;20033;-83
2023/08/16 07:55:13;;;;;;;10.18;6.65;;;17.30;99.90;;;;;;5014285;28;20037;-83
2023/08/16 07:57:39;;;;;;;9.82;5.90;;;17.50;99.90;;;;;;4996323;28;20509;-84
2023/08/16 08:00:06;;;;;;;8.57;3.85;;;17.70;99.90;;;;;;5015828;28;20041;-83
2023/08/16 08:02:32;;;;;;;8.43;3.45;;;17.80;99.90;;;;;;5004026;28;20030;-83
2023/08/16 08:05:01;;;;;;;9.05;3.00;;;18.00;99.90;;;;;;5015559;28;20114;-82
2023/08/16 08:07:28;;;;;;;7.68;2.88;;;18.20;99.90;;;;;;5014714;28;20073;-83
2023/08/16 08:09:57;;;;;;;7.47;2.75;;;18.20;99.90;;;;;;5005572;28;20037;-84
2023/08/16 08:12:22;;;;;;;7.80;2.38;;;18.40;99.90;;;;;;5015797;28;20030;-84
2023/08/16 08:14:48;;;;;;;5.22;2.10;;;18.50;99.90;;;;;;5028795;28;20063;-84
2023/08/16 08:17:14;;;;;;;5.60;2.40;;;18.60;99.90;;;;;;5014813;28;20095;-84
2023/08/16 08:19:39;;;;;;;6.22;2.25;;;18.70;99.90;;;;;;5032012;28;20029;-84
2023/08/16 08:22:05;;;;;;;6.95;2.28;;;18.70;99.90;;;;;;5009185;28;20041;-84
2023/08/16 08:24:30;;;;;;;6.10;2.25;;;18.80;99.90;;;;;;5016545;28;20084;-84
2023/08/16 08:26:57;;;;;;;7.50;2.60;;;18.80;99.90;;;;;;5013846;28;20493;-84
2023/08/16 08:29:25;;;;;;;5.85;2.20;;;18.90;99.90;;;;;;5032956;28;20041;-84
2023/08/16 08:31:54;;;;;;;6.38;2.10;;;19.00;99.90;;;;;;5000459;28;20478;-83
2023/08/16 08:34:20;;;;;;;5.22;2.17;;;19.10;99.90;;;;;;5019518;28;20041;-83
2023/08/16 08:36:45;;;;;;;7.45;2.25;;;19.10;99.90;;;;;;5015523;28;20033;-83
2023/08/16 08:39:11;;;;;;;7.50;2.30;;;19.20;99.90;;;;;;5002351;28;20045;-84
2023/08/16 08:41:38;;;;;;;8.10;2.30;;;19.30;99.90;;;;;;4996989;28;20037;-83
2023/08/16 08:44:05;;;;;;;4.72;1.73;;;19.40;99.90;;;;;;5009735;28;20486;-84
2023/08/16 08:46:31;;;;;;;7.75;2.33;;;19.50;99.90;;;;;;4995550;28;20042;-83
2023/08/16 08:49:01;;;;;;;4.25;1.75;;;19.60;99.90;;;;;;5016745;28;20120;-83
2023/08/16 08:51:33;;;;;;;7.43;2.20;;;19.60;99.90;;;;;;5020196;28;20478;-85
2023/08/16 08:53:59;;;;;;;4.50;1.90;;;19.70;99.90;;;;;;5004468;28;20041;-85
2023/08/16 08:56:27;;;;;;;3.90;1.63;;;19.70;99.90;;;;;;5029803;28;20513;-84
2023/08/16 08:58:56;;;;;;;5.22;1.92;;;19.80;99.90;;;;;;5027360;28;20045;-83
2023/08/16 09:01:24;;;;;;;6.55;2.22;;;19.90;99.90;;;;;;5018265;28;20037;-83
2023/08/16 09:03:52;;;;;;;6.43;1.95;;;19.90;99.90;;;;;;5020446;28;20490;-85
2023/08/16 09:06:18;;;;;;;4.53;2.05;;;20.10;99.90;;;;;;5030328;28;20069;-79
2023/08/16 09:08:45;;;;;;;4.43;1.88;;;20.20;99.90;;;;;;5027558;28;20083;-79
2023/08/16 09:11:13;;;;;;;7.75;2.05;;;20.30;99.90;;;;;;5014385;28;20042;-78
2023/08/16 09:13:39;;;;;;;6.30;2.10;;;20.30;99.90;;;;;;5014858;28;20041;-80
2023/08/16 09:16:04;;;;;;;5.82;1.90;;;20.30;99.90;;;;;;5031182;28;20048;-79
2023/08/16 09:18:30;;;;;;;6.70;2.28;;;20.40;99.90;;;;;;4997430;28;20046;-79
2023/08/16 09:20:58;;;;;;;6.40;1.92;;;20.30;99.90;;;;;;5018778;28;20041;-80
2023/08/16 09:23:24;;;;;;;6.65;2.10;;;20.30;99.90;;;;;;5014288;28;20050;-79
2023/08/16 09:25:51;;;;;;;5.88;2.03;;;20.20;99.90;;;;;;5015313;28;20049;-79
2023/08/16 09:28:16;;;;;;;3.90;1.38;;;20.20;99.90;;;;;;5030983;28;20544;-79
2023/08/16 09:30:42;;;;;;;5.53;1.48;;;20.10;99.90;;;;;;5014314;28;20033;-85
2023/08/16 09:33:09;;;;;;;5.47;1.80;;;20.00;99.90;;;;;;5010339;28;20123;-86
2023/08/16 09:35:43;;;;;;;5.60;1.50;;;19.90;99.90;;;;;;5027171;28;20048;-85
2023/08/16 09:38:09;;;;;;;3.90;1.75;;;19.80;99.90;;;;;;5014532;28;20045;-85
2023/08/16 09:40:35;;;;;;;4.95;1.75;;;19.90;99.90;;;;;;5029529;28;20049;-85
2023/08/16 09:43:02;;;;;;;4.57;1.90;;;19.80;99.90;;;;;;5028693;28;20096;-86
2023/08/16 09:45:31;;;;;;;5.95;2.03;;;19.90;99.90;;;;;;5027114;28;20042;-85
2023/08/16 09:47:59;;;;;;;4.65;1.70;;;19.80;99.90;;;;;;5029672;28;20052;-86
2023/08/16 09:50:26;;;;;;;9.02;1.90;;;19.90;99.90;;;;;;5029452;28;20048;-85
2023/08/16 09:52:52;;;;;;;4.45;1.80;;;19.90;99.90;;;;;;5034742;28;20072;-85
2023/08/16 09:55:29;;;;;;;6.85;2.10;;;20.00;99.90;;;;;;5020643;28;20061;-85
2023/08/16 09:57:58;;;;;;;4.03;1.98;;;20.00;99.90;;;;;;5030331;28;20075;-85
2023/08/16 10:00:27;;;;;;;6.38;1.90;;;20.00;99.90;;;;;;5004076;28;20038;-84
2023/08/16 10:02:53;;;;;;;4.18;1.83;;;20.20;99.90;;;;;;5021975;28;20052;-85
2023/08/16 10:05:19;;;;;;;6.05;2.50;;;20.30;99.90;;;;;;5000044;28;20052;-85
2023/08/16 10:07:48;;;;;;;7.00;1.98;;;20.30;99.90;;;;;;5025352;28;20034;-85
2023/08/16 10:10:14;;;;;;;5.10;2.05;;;20.30;99.90;;;;;;5030096;28;20362;-85
2023/08/16 10:12:41;;;;;;;6.20;2.63;;;20.40;99.90;;;;;;5031795;28;20041;-85
2023/08/16 10:15:08;;;;;;;6.60;2.50;;;20.50;99.90;;;;;;5012692;28;20385;-85
2023/08/16 10:17:37;;;;;;;5.05;2.38;;;20.60;99.90;;;;;;5038638;28;20041;-86
2023/08/16 10:20:07;;;;;;;7.43;2.78;;;20.60;99.90;;;;;;5027645;28;20034;-86
2023/08/16 10:22:43;;;;;;;5.40;2.50;;;20.80;99.90;;;;;;5021971;28;20040;-85
2023/08/16 10:25:15;;;;;;;6.32;2.35;;;20.90;99.90;;;;;;5010682;28;20029;-85
2023/08/16 10:27:45;;;;;;;2.97;2.00;;;20.90;99.90;;;;;;5033206;28;20054;-86
2023/08/16 10:30:24;;;;;;;5.53;2.30;;;21.00;99.90;;;;;;5031422;28;20064;-84
2023/08/16 10:33:16;;;;;;;4.70;2.03;;;21.20;99.90;;;;;;5034584;28;20033;-85
2023/08/16 10:35:43;;;;;;;5.85;2.58;;;21.40;99.90;;;;;;5019127;28;20544;-86
2023/08/16 10:38:08;;;;;;;5.75;2.25;;;21.40;99.90;;;;;;5007112;28;20084;-86
2023/08/16 10:40:34;;;;;;;6.30;1.80;;;21.40;99.90;;;;;;5011854;28;20041;-85
2023/08/16 10:43:05;;;;;;;3.58;2.22;;;21.40;99.90;;;;;;5031927;28;20398;-84
2023/08/16 10:45:34;;;;;;;5.93;2.40;;;21.50;99.90;;;;;;5030126;28;20030;-86
2023/08/16 10:48:17;;;;;;;5.43;2.30;;;21.50;99.90;;;;;;5016613;28;20038;-85
2023/08/16 10:50:44;;;;;;;5.15;2.20;;;21.60;99.90;;;;;;5021274;28;20042;-85
2023/08/16 10:53:12;;;;;;;4.68;2.30;;;21.60;99.90;;;;;;5017695;28;20398;-86
2023/08/16 10:55:39;;;;;;;5.97;2.35;;;21.70;99.90;;;;;;5015926;28;20394;-85
2023/08/16 10:58:05;;;;;;;4.68;2.33;;;21.70;99.90;;;;;;5021625;28;20065;-85
2023/08/16 11:00:35;;;;;;;4.97;2.38;;;21.90;99.90;;;;;;5003845;28;20042;-86
2023/08/16 11:03:03;;;;;;;4.55;2.00;;;21.80;99.90;;;;;;5017312;28;20042;-85
2023/08/16 11:05:31;;;;;;;4.55;1.88;;;21.90;99.90;;;;;;5023781;28;20135;-86
2023/08/16 11:08:01;;;;;;;3.53;1.70;;;22.00;99.90;;;;;;5029232;28;20363;-86
2023/08/16 11:10:37;;;;;;;6.00;1.85;;;22.00;99.90;;;;;;5021857;28;20038;-86
2023/08/16 11:13:11;;;;;;;3.40;1.58;;;22.10;99.90;;;;;;5011581;28;20044;-85
2023/08/16 11:15:40;;;;;;;1.88;1.20;;;22.00;99.90;;;;;;5008173;28;20041;-85
2023/08/16 11:18:06;;;;;;;2.83;1.13;;;22.10;99.90;;;;;;5023703;28;20092;-85
2023/08/16 11:20:31;;;;;;;3.42;1.23;;;22.00;99.90;;;;;;5024794;28;20516;-85
2023/08/16 11:23:00;;;;;;;4.03;1.40;;;22.20;99.90;;;;;;5012307;28;20037;-86
2023/08/16 11:25:33;;;;;;;4.72;1.50;;;22.20;99.90;;;;;;5024960;28;20044;-86
2023/08/16 11:28:05;;;;;;;5.47;1.50;;;22.00;99.90;;;;;;5032402;28;20053;-85
2023/08/16 11:30:33;;;;;;;;;;;22.10;99.90;;;;;;5030255;28;20044;-85
2023/08/16 11:33:00;;;;;;;1.77;1.00;;;22.10;99.90;;;;;;5032478;28;19971;-85
2023/08/16 11:35:25;;;;;;;2.75;1.10;;;22.10;99.90;;;;;;5031414;28;20037;-86
2023/08/16 11:37:51;;;;;;;4.13;1.00;;;22.00;99.90;;;;;;5030002;28;20053;-85
2023/08/16 11:40:23;;;;;;;5.50;1.45;;;22.00;99.90;;;;;;5029185;28;20037;-85
2023/08/16 11:42:50;;;;;;;2.15;0.90;;;22.00;99.90;;;;;;5029011;28;20080;-84
2023/08/16 11:45:21;;;;;;;4.45;1.10;;;22.00;99.90;;;;;;5013218;28;20048;-85
2023/08/16 11:47:53;;;;;;;2.38;1.17;;;22.10;99.90;;;;;;5026568;28;20486;-85
2023/08/16 11:50:22;;;;;;;3.60;0.90;;;22.30;99.90;;;;;;5028588;28;20064;-84
2023/08/16 11:53:01;;;;;;;2.70;1.00;;;22.10;99.90;;;;;;5008020;28;20437;-84
2023/08/16 11:55:29;;;;;;;3.83;1.10;;;22.10;99.90;;;;;;5013001;28;20088;-84
2023/08/16 11:58:06;;;;;;;2.35;1.10;;;22.00;99.90;;;;;;5010582;28;20038;-84
2023/08/16 12:00:33;;;;;;;3.42;1.20;;;22.00;99.90;;;;;;5024927;28;20115;-83
2023/08/16 12:03:02;;;;;;;3.70;0.90;;;22.00;99.90;;;;;;5032086;28;20055;-84
2023/08/16 12:05:37;;;;;;;2.90;1.42;;;22.00;99.90;;;;;;5032061;28;20172;-85
2023/08/16 12:08:04;;;;;;;3.08;0.98;;;22.10;99.90;;;;;;5033214;28;20049;-85
2023/08/16 12:10:32;;;;;;;3.50;1.00;;;22.20;99.90;;;;;;5015828;28;20375;-84
2023/08/16 12:12:59;;;;;;;1.67;0.82;;;22.10;99.90;;;;;;5027666;28;20041;-85
2023/08/16 12:15:27;;;;;;;1.83;0.95;;;22.10;99.90;;;;;;5032448;28;20103;-84
2023/08/16 12:17:55;;;;;;;2.65;0.90;;;22.10;99.90;;;;;;5012499;28;20048;-84
2023/08/16 12:20:24;;;;;;;2.58;1.00;;;22.20;99.90;;;;;;5025792;28;20083;-86
2023/08/16 12:22:54;;;;;;;3.50;1.05;;;22.20;99.90;;;;;;5001022;28;20049;-85
2023/08/16 12:25:19;;;;;;;3.75;1.20;;;22.20;99.90;;;;;;5024972;28;20044;-86
2023/08/16 12:27:45;;;;;;;4.25;1.33;;;22.10;99.90;;;;;;5031892;28;20049;-84
2023/08/16 12:30:11;;;;;;;3.22;1.30;;;22.00;99.90;;;;;;5008623;28;20496;-83
2023/08/16 12:32:37;;;;;;;4.28;1.30;;;22.10;99.90;;;;;;5005946;28;20041;-85
2023/08/16 12:35:02;;;;;;;3.60;1.38;;;22.20;99.90;;;;;;5032100;28;20037;-83
2023/08/16 12:37:28;;;;;;;1.70;0.95;;;22.30;99.90;;;;;;5013626;28;20081;-83
2023/08/16 12:39:54;;;;;;;4.05;1.10;;;22.20;99.90;;;;;;5006989;28;20038;-84
2023/08/16 12:42:19;;;;;;;3.65;1.13;;;22.20;99.90;;;;;;5013909;28;20042;-83
2023/08/16 12:44:45;;;;;;;3.30;1.23;;;22.30;99.90;;;;;;5031974;28;20041;-83